Schedule Details

Flight Number: SQS33A
Departure: Rokot (WIBR) at 09:00
Arrival: Minangkabau International (WIEE) at 09.30

$depweather=Schedulesdata::GetWeather($schedule->depicao); $arrweather=Schedulesdata::GetWeather($schedule->arricao); $depsun=" Sunrise: ".date_sunrise(time(),SUNFUNCS_RET_STRING,$schedule->deplat,$schedule->deplng,90,0)." Sunset: ".date_sunset(time(),SUNFUNCS_RET_STRING,$schedule->deplat,$schedule->deplng,90,0)." (UTC)"; $arrsun=" Sunrise: ".date_sunrise(time(),SUNFUNCS_RET_STRING,$schedule->arrlat,$schedule->arrlng,90,0)." Sunset: ".date_sunset(time(),SUNFUNCS_RET_STRING,$schedule->arrlat,$schedule->arrlng,90,0)." (UTC)"; Weather Information
Current METAR information for WIBR :
Current METAR information for WIEE : WIEE 282230Z 10002KT 9999 BKN020 24/24 Q1008 NOSIG

Schedule Frequency




TAF:

Route Map